Babb, Montana
Current Conditions -  °F | °C
As of 7:56 AM on Saturday 25 Oct 2014 (Local Time) from KCTB Reporting Station
Clear Clear  
Wind Chill: 35°   Ceiling: Unl
Heat Index: 39°   Visibility: 10mi
Dew Point: 31°   Wind: 6mph
Humidity: 73%   Direction: 110°ESE
Pressure: 29.97"   Gusts: NA
Location:  48.85°N, 113.44°W
Report Text: KCTB 251356Z AUTO 11005KT 10SM CLR 04/M01 A2997 RMK AO2 SLP157 T00391006
Loading
Personal Weather Stations






























Interactive Weather Map New forecast layout! Learn more

10-Day Weather Forecast

Advertisements
Track Severe Weather on mobile